Time;durP1;ratioP1;P1;durP2;ratioP2;P2;SDS_P1;SDS_P2;PMS_P1;PMS_P2;Temp;Humidity;BMP_temperature;BMP_pressure;BME280_temperature;BME280_humidity;BME280_pressure;Samples;Min_cycle;Max_cycle;Signal;HPM_P1;HPM_P2
2021/12/30 00:01:22;;;;;;;;;2.00;0.00;;;;;15.30;79.40;101034.78;5035409;28;45391;-60
2021/12/30 00:03:48;;;;;;;;;0.00;0.00;;;;;15.32;79.60;101037.38;5055201;28;45530;-59
2021/12/30 00:06:22;;;;;;;;;0.00;0.00;;;;;15.34;79.34;101038.09;5055614;28;45439;-60
2021/12/30 00:08:50;;;;;;;;;0.00;0.00;;;;;15.34;79.25;101038.09;5060798;28;45590;-61
2021/12/30 00:11:17;;;;;;;;;0.00;0.00;;;;;15.31;79.54;101033.81;5045729;28;45504;-61
2021/12/30 00:13:45;;;;;;;;;1.33;0.00;;;;;15.34;79.55;101043.47;5047003;28;45527;-60
2021/12/30 00:16:13;;;;;;;;;0.00;0.00;;;;;15.34;79.41;101055.03;5045354;28;45554;-59
2021/12/30 00:18:39;;;;;;;;;1.00;1.00;;;;;15.33;79.38;101050.66;5027258;28;45524;-58
2021/12/30 00:21:06;;;;;;;;;0.00;0.00;;;;;15.34;79.51;101048.81;5046611;28;45814;-59
2021/12/30 00:23:32;;;;;;;;;0.00;0.00;;;;;15.37;79.41;101053.16;5043333;28;45291;-58
2021/12/30 00:25:59;;;;;;;;;0.00;0.00;;;;;15.35;79.40;101047.84;5047303;28;45430;-58
2021/12/30 00:28:26;;;;;;;;;0.67;0.67;;;;;15.37;79.39;101042.44;5048343;28;45488;-59
2021/12/30 00:30:52;;;;;;;;;0.00;0.00;;;;;15.33;78.88;101047.13;5044580;28;45534;-59
2021/12/30 00:33:18;;;;;;;;;0.67;0.67;;;;;15.33;79.44;101042.59;5045214;28;45434;-58
2021/12/30 00:35:45;;;;;;;;;0.00;0.00;;;;;15.32;79.37;101040.03;5047528;28;45580;-59
2021/12/30 00:38:12;;;;;;;;;0.00;0.00;;;;;15.30;79.64;101040.16;5043282;28;45513;-57
2021/12/30 00:40:38;;;;;;;;;0.00;0.00;;;;;15.33;79.35;101053.34;5045761;28;45331;-60
2021/12/30 00:43:04;;;;;;;;;0.00;0.00;;;;;15.34;79.44;101048.81;5052747;28;45178;-62
2021/12/30 00:45:32;;;;;;;;;0.00;0.00;;;;;15.34;79.29;101049.69;5056013;28;45383;-59
2021/12/30 00:47:58;;;;;;;;;2.00;0.00;;;;;15.36;79.54;101057.63;5055602;28;45389;-60
2021/12/30 00:50:25;;;;;;;;;0.00;0.00;;;;;15.38;79.21;101053.03;5055481;28;45476;-59
2021/12/30 00:52:50;;;;;;;;;0.00;0.00;;;;;15.39;79.76;101056.56;5054808;28;45992;-60
2021/12/30 00:55:16;;;;;;;;;0.00;0.00;;;;;15.35;79.19;101058.59;5055865;28;45630;-58
2021/12/30 00:57:42;;;;;;;;;0.00;0.00;;;;;15.40;79.23;101060.97;5055623;28;46179;-58
2021/12/30 01:00:11;;;;;;;;;0.00;0.00;;;;;15.40;79.49;101069.00;5055578;28;45230;-62
2021/12/30 01:02:37;;;;;;;;;0.00;0.00;;;;;15.36;79.29;101068.34;5055680;28;45310;-60
2021/12/30 01:05:03;;;;;;;;;2.00;0.00;;;;;15.39;79.54;101070.84;5056184;28;45323;-60
2021/12/30 01:07:28;;;;;;;;;0.00;0.00;;;;;15.37;79.34;101069.22;5040905;28;45380;-58
2021/12/30 01:09:53;;;;;;;;;0.00;0.00;;;;;15.33;79.73;101074.78;5058188;28;45445;-60
2021/12/30 01:12:19;;;;;;;;;0.33;0.33;;;;;15.38;79.78;101078.97;5059190;28;45221;-60
2021/12/30 01:14:47;;;;;;;;;0.00;0.00;;;;;15.32;79.60;101088.28;5059515;28;45623;-61
2021/12/30 01:17:20;;;;;;;;;0.00;0.00;;;;;15.31;80.01;101095.47;5059382;28;46160;-60
2021/12/30 01:19:46;;;;;;;;;1.00;1.00;;;;;15.34;80.11;101097.06;5058997;28;45394;-62
2021/12/30 01:22:16;;;;;;;;;0.00;0.00;;;;;15.33;79.67;101112.28;5058900;28;45502;-60
2021/12/30 01:24:42;;;;;;;;;0.33;0.33;;;;;15.35;79.87;101107.69;5058084;28;45454;-58
2021/12/30 01:27:08;;;;;;;;;0.00;0.00;;;;;15.34;79.79;101105.97;5040412;28;48290;-59
2021/12/30 01:29:34;;;;;;;;;1.67;0.33;;;;;15.32;80.13;101105.22;5040634;28;45382;-61
2021/12/30 01:31:59;;;;;;;;;0.00;0.00;;;;;15.31;80.35;101102.63;5058633;28;45216;-62
2021/12/30 01:34:27;;;;;;;;;0.67;0.67;;;;;15.27;80.33;101112.72;5040918;28;45599;-61
2021/12/30 01:36:53;;;;;;;;;0.00;0.00;;;;;15.28;80.68;101114.44;5058729;28;47081;-60
2021/12/30 01:39:20;;;;;;;;;2.33;1.00;;;;;15.29;80.71;101120.66;5057861;28;45331;-59
2021/12/30 01:41:46;;;;;;;;;2.00;1.00;;;;;15.28;81.29;101129.66;5058613;28;45509;-62
2021/12/30 01:44:11;;;;;;;;;0.00;0.00;;;;;15.22;81.43;101120.19;5058671;28;45370;-61
2021/12/30 01:46:42;;;;;;;;;0.33;0.33;;;;;15.22;81.58;101130.91;5058430;28;45880;-59
2021/12/30 01:49:09;;;;;;;;;0.33;0.33;;;;;15.24;81.26;101129.00;5058434;28;45236;-61
2021/12/30 01:51:35;;;;;;;;;1.00;1.00;;;;;15.28;81.01;101135.88;5058556;28;45282;-61
2021/12/30 01:54:01;;;;;;;;;0.00;0.00;;;;;15.28;81.46;101137.69;5057523;28;45565;-60
2021/12/30 01:56:27;;;;;;;;;2.00;0.00;;;;;15.28;81.18;101135.88;5058042;28;46402;-59
2021/12/30 01:58:54;;;;;;;;;0.00;0.00;;;;;15.29;80.89;101126.00;5058368;28;45323;-59
2021/12/30 02:01:20;;;;;;;;;0.00;0.00;;;;;15.23;81.42;101124.59;5040465;28;45282;-59
2021/12/30 02:03:46;;;;;;;;;0.33;0.33;;;;;15.25;81.49;101130.72;5059004;28;45626;-59
2021/12/30 02:06:11;;;;;;;;;0.67;0.67;;;;;15.23;81.41;101131.75;5023546;28;47437;-59
2021/12/30 02:08:36;;;;;;;;;4.00;0.33;;;;;15.23;82.00;101132.63;5057453;28;45612;-58
2021/12/30 02:11:02;;;;;;;;;2.00;1.00;;;;;15.25;81.82;101141.44;5057733;28;45835;-59
2021/12/30 02:13:28;;;;;;;;;0.00;0.00;;;;;15.26;81.70;101135.13;5040065;28;45570;-59
2021/12/30 02:16:00;;;;;;;;;0.00;0.00;;;;;15.26;81.89;101145.84;5057825;28;46216;-59
2021/12/30 02:18:25;;;;;;;;;0.00;0.00;;;;;15.26;81.97;101142.31;5039066;28;45402;-60
2021/12/30 02:21:00;;;;;;;;;1.00;1.00;;;;;15.25;81.66;101146.81;5058287;28;45545;-59
2021/12/30 02:23:28;;;;;;;;;0.67;0.67;;;;;15.25;81.98;101160.19;5058218;28;45446;-60
2021/12/30 02:25:57;;;;;;;;;0.33;0.33;;;;;15.24;81.56;101160.31;5056741;28;46991;-60
2021/12/30 02:28:26;;;;;;;;;0.00;0.00;;;;;15.24;82.06;101161.16;5039608;28;45379;-61
2021/12/30 02:30:55;;;;;;;;;0.00;0.00;;;;;15.24;81.51;101155.81;5058132;28;45366;-59
2021/12/30 02:33:22;;;;;;;;;2.00;0.00;;;;;15.23;81.84;101163.91;5058473;28;45511;-61
2021/12/30 02:35:49;;;;;;;;;0.00;0.00;;;;;15.24;81.62;101161.16;5057748;28;46074;-60
2021/12/30 02:38:16;;;;;;;;;0.33;0.33;;;;;15.24;81.46;101171.03;5039668;28;45386;-59
2021/12/30 02:40:45;;;;;;;;;2.00;0.67;;;;;15.25;81.22;101172.75;5038954;28;45454;-59
2021/12/30 02:43:20;;;;;;;;;0.00;0.00;;;;;15.24;81.11;101166.53;5057746;28;45491;-60
2021/12/30 02:45:47;;;;;;;;;0.00;0.00;;;;;15.21;81.26;101177.41;5057427;28;45725;-61
2021/12/30 02:48:15;;;;;;;;;1.00;1.00;;;;;15.24;81.16;101179.06;5057546;28;45437;-60
2021/12/30 02:50:43;;;;;;;;;1.00;0.00;;;;;15.22;81.10;101189.00;5057155;28;45325;-60
2021/12/30 02:53:09;;;;;;;;;0.00;0.00;;;;;15.24;81.00;101192.47;5057607;28;45236;-59
2021/12/30 02:55:34;;;;;;;;;0.33;0.00;;;;;15.26;80.72;101193.22;5038300;28;46681;-58
2021/12/30 02:57:59;;;;;;;;;0.00;0.00;;;;;15.25;80.80;101200.41;5056970;28;45450;-60
2021/12/30 03:00:25;;;;;;;;;0.33;0.33;;;;;15.27;80.77;101201.16;5057341;28;45517;-59
2021/12/30 03:02:50;;;;;;;;;0.00;0.00;;;;;15.26;80.53;101194.06;5057747;28;45330;-59
2021/12/30 03:05:19;;;;;;;;;0.00;0.00;;;;;15.28;80.61;101199.31;5057185;28;46012;-60
2021/12/30 03:07:45;;;;;;;;;0.00;0.00;;;;;15.28;80.67;101197.50;5057145;28;45259;-59
2021/12/30 03:10:16;;;;;;;;;1.00;0.00;;;;;15.31;80.51;101193.75;5057169;28;45251;-59
2021/12/30 03:12:42;;;;;;;;;0.00;0.00;;;;;15.29;80.24;101191.19;5056240;28;45917;-57
2021/12/30 03:15:11;;;;;;;;;0.00;0.00;;;;;15.28;80.53;101189.47;5056269;28;45394;-59
2021/12/30 03:17:40;;;;;;;;;1.00;0.00;;;;;15.32;80.28;101184.75;5056889;28;45331;-58
2021/12/30 03:20:09;;;;;;;;;1.00;0.00;;;;;15.33;80.18;101192.69;5038946;28;45403;-60
2021/12/30 03:22:41;;;;;;;;;0.00;0.00;;;;;15.33;79.89;101187.31;5057264;28;45324;-60
2021/12/30 03:25:09;;;;;;;;;0.00;0.00;;;;;15.34;80.08;101191.72;5056620;28;47243;-60
2021/12/30 03:27:35;;;;;;;;;0.00;0.00;;;;;15.29;79.86;101196.53;5056071;28;45277;-62
2021/12/30 03:30:03;;;;;;;;;0.00;0.00;;;;;15.34;79.70;101194.41;5056772;28;45414;-58
2021/12/30 03:32:29;;;;;;;;;0.00;0.00;;;;;15.35;80.00;101200.63;5056947;28;45371;-59
2021/12/30 03:34:54;;;;;;;;;0.00;0.00;;;;;15.38;79.83;101199.59;5038715;28;47845;-58
2021/12/30 03:37:20;;;;;;;;;0.00;0.00;;;;;15.35;79.87;101196.13;5038800;28;45454;-57
2021/12/30 03:39:48;;;;;;;;;0.00;0.00;;;;;15.38;79.33;101197.75;5056683;28;45349;-60
2021/12/30 03:42:14;;;;;;;;;0.00;0.00;;;;;15.37;79.05;101200.56;5056300;28;45588;-59
2021/12/30 03:44:39;;;;;;;;;0.00;0.00;;;;;15.32;79.02;101188.28;5055796;28;45865;-61
2021/12/30 03:47:06;;;;;;;;;1.00;0.00;;;;;15.34;79.30;101193.53;5021839;28;45330;-60
2021/12/30 03:49:32;;;;;;;;;0.00;0.00;;;;;15.43;79.12;101192.09;5056334;28;45353;-60
2021/12/30 03:51:57;;;;;;;;;0.00;0.00;;;;;15.41;78.94;101194.88;5056918;28;45431;-58
2021/12/30 03:54:22;;;;;;;;;0.00;0.00;;;;;15.40;78.83;101184.25;5056683;28;46083;-59
2021/12/30 03:56:48;;;;;;;;;0.00;0.00;;;;;15.39;79.00;101185.22;5056516;28;45344;-60
2021/12/30 03:59:14;;;;;;;;;0.67;0.67;;;;;15.41;78.71;101188.66;5055444;28;45442;-60
2021/12/30 04:01:40;;;;;;;;;0.00;0.00;;;;;15.41;78.93;101191.34;5056693;28;45299;-59
2021/12/30 04:04:05;;;;;;;;;0.00;0.00;;;;;15.42;78.96;101185.00;5038080;28;48404;-59
2021/12/30 04:06:31;;;;;;;;;0.00;0.00;;;;;15.42;78.44;101185.00;5055675;28;45455;-59
2021/12/30 04:08:58;;;;;;;;;0.00;0.00;;;;;15.43;78.67;101181.38;5038485;28;45382;-58
2021/12/30 04:11:25;;;;;;;;;1.00;0.00;;;;;15.40;78.75;101182.44;5056887;28;45498;-59
2021/12/30 04:13:50;;;;;;;;;0.00;0.00;;;;;15.40;78.48;101186.94;5054862;28;45714;-60
2021/12/30 04:16:18;;;;;;;;;0.00;0.00;;;;;15.42;78.62;101185.00;5056162;28;45340;-61
2021/12/30 04:18:45;;;;;;;;;1.00;0.00;;;;;15.39;78.56;101169.13;5056296;28;45361;-61
2021/12/30 04:21:11;;;;;;;;;0.00;0.00;;;;;15.42;78.42;101185.00;5037193;28;45528;-59
2021/12/30 04:23:37;;;;;;;;;0.00;0.00;;;;;15.42;78.74;101185.00;5056446;28;45678;-58
2021/12/30 04:26:02;;;;;;;;;0.33;0.00;;;;;15.45;78.43;101191.00;5056074;28;45430;-61
2021/12/30 04:28:28;;;;;;;;;0.00;0.00;;;;;15.43;78.04;101181.38;5056177;28;45392;-58
2021/12/30 04:30:53;;;;;;;;;0.00;0.00;;;;;15.47;78.14;101193.59;5037619;28;45490;-59
2021/12/30 04:33:20;;;;;;;;;0.00;0.00;;;;;15.48;78.19;101168.50;5055766;28;46209;-59
2021/12/30 04:35:45;;;;;;;;;1.00;1.00;;;;;15.49;77.95;101179.13;5037642;28;45330;-59
2021/12/30 04:38:11;;;;;;;;;0.00;0.00;;;;;15.51;77.68;101174.53;5054744;28;45275;-58
2021/12/30 04:40:36;;;;;;;;;0.33;0.33;;;;;15.53;77.77;101174.44;5055722;28;45189;-61
2021/12/30 04:43:02;;;;;;;;;0.33;0.00;;;;;15.55;77.70;101183.22;5055648;28;46071;-61
2021/12/30 04:45:29;;;;;;;;;1.33;0.00;;;;;15.57;77.39;101178.59;5055332;28;45661;-59
2021/12/30 04:47:54;;;;;;;;;0.00;0.00;;;;;15.59;77.32;101184.72;5056064;28;45355;-60
2021/12/30 04:50:20;;;;;;;;;2.00;0.00;;;;;15.58;77.01;101181.19;5055878;28;45485;-59
2021/12/30 04:52:45;;;;;;;;;0.00;0.00;;;;;15.56;77.11;101187.63;5055698;28;45466;-59
2021/12/30 04:55:11;;;;;;;;;0.00;0.00;;;;;15.58;76.99;101191.06;5055534;28;45423;-59
2021/12/30 04:57:36;;;;;;;;;0.00;0.00;;;;;15.59;77.07;101192.75;5055755;28;45454;-59
2021/12/30 05:00:07;;;;;;;;;1.00;1.00;;;;;15.59;77.15;101193.66;5055550;28;45400;-58
2021/12/30 05:02:46;;;;;;;;;0.00;0.00;;;;;15.58;76.87;101202.63;5054470;28;46299;-59
2021/12/30 05:05:12;;;;;;;;;0.00;0.00;;;;;15.57;77.04;101210.78;5055417;28;45482;-58
2021/12/30 05:07:37;;;;;;;;;0.00;0.00;;;;;15.54;76.88;101214.53;5055776;28;45490;-60
2021/12/30 05:10:03;;;;;;;;;0.67;0.00;;;;;15.53;76.28;101225.38;5054309;28;45351;-58
2021/12/30 05:12:28;;;;;;;;;1.33;0.00;;;;;15.52;77.00;101224.50;5044959;28;46134;-58
2021/12/30 05:14:54;;;;;;;;;0.00;0.00;;;;;15.49;76.83;101219.31;5026170;28;45363;-58
2021/12/30 05:17:19;;;;;;;;;0.00;0.00;;;;;15.46;76.50;101224.03;5031650;28;45488;-60
2021/12/30 05:19:45;;;;;;;;;0.33;0.00;;;;;15.45;77.13;101233.03;5044682;28;45337;-59
2021/12/30 05:22:11;;;;;;;;;0.00;0.00;;;;;15.46;76.67;101218.69;5026309;28;48289;-59
2021/12/30 05:24:37;;;;;;;;;0.67;0.00;;;;;15.45;76.67;101217.81;5045430;28;45243;-59
2021/12/30 05:27:03;;;;;;;;;0.00;0.00;;;;;15.45;76.25;101216.97;5046032;28;45240;-60
2021/12/30 05:29:28;;;;;;;;;0.00;0.00;;;;;15.41;76.51;101210.09;5044318;28;45563;-60
2021/12/30 05:31:53;;;;;;;;;0.67;0.67;;;;;15.39;76.81;101217.38;5045657;28;45469;-59
2021/12/30 05:34:19;;;;;;;;;0.00;0.00;;;;;15.38;76.76;101231.75;5043291;28;45329;-58
2021/12/30 05:36:44;;;;;;;;;0.00;0.00;;;;;15.35;76.91;101225.59;5045218;28;45304;-60
2021/12/30 05:39:10;;;;;;;;;0.00;0.00;;;;;15.32;76.94;101222.28;5043002;28;45632;-58
2021/12/30 05:41:36;;;;;;;;;0.00;0.00;;;;;15.27;77.47;101227.94;5043324;28;46339;-61
2021/12/30 05:44:02;;;;;;;;;1.00;1.00;;;;;15.23;77.35;101226.41;5046137;28;45431;-58
2021/12/30 05:46:27;;;;;;;;;0.00;0.00;;;;;15.22;77.56;101240.75;5027138;28;45361;-60
2021/12/30 05:48:53;;;;;;;;;0.00;0.00;;;;;15.20;78.26;101248.03;5032483;28;45441;-59
2021/12/30 05:51:18;;;;;;;;;2.00;0.33;;;;;15.16;77.60;101254.56;5044971;28;46130;-59
2021/12/30 05:53:44;;;;;;;;;0.00;0.00;;;;;15.14;78.20;101261.84;5047628;28;45476;-59
2021/12/30 05:56:10;;;;;;;;;0.00;0.00;;;;;15.09;78.25;101266.63;5047648;28;45456;-60
2021/12/30 05:58:35;;;;;;;;;0.00;0.00;;;;;15.00;78.06;101257.38;5054811;28;45386;-56
2021/12/30 06:01:00;;;;;;;;;0.00;0.00;;;;;15.00;78.34;101272.59;5057424;28;45434;-58
2021/12/30 06:03:26;;;;;;;;;0.00;0.00;;;;;14.94;78.53;101265.78;5056931;28;45536;-57
2021/12/30 06:05:51;;;;;;;;;0.00;0.00;;;;;14.91;78.68;101265.13;5033921;28;45442;-59
2021/12/30 06:08:17;;;;;;;;;1.67;1.00;;;;;14.89;78.60;101262.56;5057352;28;45621;-58
2021/12/30 06:10:43;;;;;;;;;0.33;0.33;;;;;14.84;78.55;101269.16;5057085;28;45497;-59
2021/12/30 06:13:11;;;;;;;;;1.00;1.00;;;;;14.83;79.06;101275.47;5057011;28;45378;-60
2021/12/30 06:15:36;;;;;;;;;1.00;1.00;;;;;14.80;78.37;101264.94;5057227;28;45451;-59
2021/12/30 06:18:02;;;;;;;;;0.00;0.00;;;;;14.75;78.55;101265.25;5038810;28;45572;-58
2021/12/30 06:20:29;;;;;;;;;2.33;0.00;;;;;14.73;78.98;101276.06;5055037;28;45428;-59
2021/12/30 06:22:55;;;;;;;;;1.00;1.00;;;;;14.71;78.64;101266.38;5056961;28;45292;-58
2021/12/30 06:25:21;;;;;;;;;0.33;0.33;;;;;14.67;78.96;101273.75;5057002;28;45426;-61
2021/12/30 06:27:46;;;;;;;;;0.00;0.00;;;;;14.64;78.50;101276.63;5057293;28;45229;-59
2021/12/30 06:30:12;;;;;;;;;0.00;0.00;;;;;14.62;78.91;101270.50;5056189;28;46121;-58
2021/12/30 06:32:37;;;;;;;;;1.00;1.00;;;;;14.61;78.76;101271.47;5052707;28;45208;-58
2021/12/30 06:35:07;;;;;;;;;4.33;1.00;;;;;14.59;78.50;101270.72;5039968;28;45231;-59
2021/12/30 06:37:33;;;;;;;;;0.67;0.67;;;;;14.60;78.43;101276.91;5036818;28;45527;-59
2021/12/30 06:39:58;;;;;;;;;1.00;1.00;;;;;14.53;78.88;101271.06;5037797;28;46294;-60
2021/12/30 06:42:23;;;;;;;;;2.00;1.00;;;;;14.51;79.30;101275.66;5037121;28;45384;-61
2021/12/30 06:44:49;;;;;;;;;3.00;3.00;;;;;14.52;78.59;101282.72;5037508;28;45423;-62
2021/12/30 06:47:14;;;;;;;;;2.00;1.00;;;;;14.45;79.18;101284.94;5053227;28;45590;-59
2021/12/30 06:49:40;;;;;;;;;3.67;1.00;;;;;14.46;78.86;101296.50;5055787;28;45877;-58
2021/12/30 06:52:08;;;;;;;;;1.00;1.00;;;;;14.45;79.02;101289.41;5057392;28;45273;-60
2021/12/30 06:54:34;;;;;;;;;2.00;1.00;;;;;14.43;79.27;101293.97;5057348;28;45248;-59
2021/12/30 06:57:00;;;;;;;;;3.33;1.00;;;;;14.38;78.89;101296.94;5057756;28;45590;-60
2021/12/30 06:59:27;;;;;;;;;2.67;1.00;;;;;14.36;79.27;101301.50;5039139;28;48551;-61
2021/12/30 07:01:56;;;;;;;;;1.00;1.00;;;;;14.36;79.15;101309.53;5056415;28;45571;-60
2021/12/30 07:04:22;;;;;;;;;2.67;1.67;;;;;14.32;78.67;101302.66;5056846;28;45466;-61
2021/12/30 07:06:47;;;;;;;;;3.00;2.00;;;;;14.31;79.08;101310.75;5038774;28;45616;-60
2021/12/30 07:09:13;;;;;;;;;1.33;1.00;;;;;14.29;79.07;101316.19;5038745;28;45932;-61
2021/12/30 07:11:39;;;;;;;;;3.00;1.33;;;;;14.22;79.03;101309.50;5056056;28;45318;-59
2021/12/30 07:14:04;;;;;;;;;2.33;1.00;;;;;14.22;78.86;101314.88;5056803;28;45181;-59
2021/12/30 07:16:30;;;;;;;;;2.00;2.00;;;;;14.21;79.31;101309.59;5056663;28;45375;-57
2021/12/30 07:18:56;;;;;;;;;7.67;2.67;;;;;14.18;79.05;101319.50;5056993;28;46173;-58
2021/12/30 07:21:22;;;;;;;;;4.00;1.33;;;;;14.22;78.71;101324.69;5056577;28;45374;-60
2021/12/30 07:23:48;;;;;;;;;5.00;2.00;;;;;14.17;78.85;101333.84;5038757;28;45346;-61
2021/12/30 07:26:13;;;;;;;;;4.00;2.00;;;;;14.18;79.18;101324.88;5056961;28;45414;-59
2021/12/30 07:28:38;;;;;;;;;2.67;1.67;;;;;14.17;78.74;101328.50;5056666;28;46016;-61
2021/12/30 07:31:04;;;;;;;;;3.00;1.00;;;;;14.21;78.38;101331.00;5052716;28;45365;-62
2021/12/30 07:33:29;;;;;;;;;3.00;1.67;;;;;14.22;78.24;101335.41;5031772;28;45382;-60
2021/12/30 07:35:55;;;;;;;;;2.00;2.00;;;;;14.23;77.81;101345.16;5056895;28;46029;-60
2021/12/30 07:38:22;;;;;;;;;8.50;3.00;;;;;14.25;78.38;101345.91;5056728;28;45968;-60
2021/12/30 07:40:50;;;;;;;;;3.33;3.33;;;;;14.30;78.13;101343.81;5038210;28;45354;-60
2021/12/30 07:43:15;;;;;;;;;7.00;2.00;;;;;14.30;78.13;101354.53;5056539;28;45343;-60
2021/12/30 07:45:41;;;;;;;;;6.33;2.00;;;;;14.31;77.48;101345.53;5038781;28;45331;-59
2021/12/30 07:48:06;;;;;;;;;4.00;2.00;;;;;14.34;77.31;101351.59;5055451;28;45390;-60
2021/12/30 07:50:32;;;;;;;;;2.33;1.00;;;;;14.35;77.61;101347.97;5056462;28;45382;-58
2021/12/30 07:52:57;;;;;;;;;5.00;2.67;;;;;14.38;77.46;101352.25;5056491;28;45435;-60
2021/12/30 07:55:23;;;;;;;;;1.67;1.67;;;;;14.35;77.03;101365.81;5056409;28;45601;-60
2021/12/30 07:57:48;;;;;;;;;5.00;2.00;;;;;14.34;77.00;101361.44;5056114;28;45519;-58
2021/12/30 08:00:17;;;;;;;;;3.00;2.67;;;;;14.33;76.94;101365.06;5055357;28;45355;-59
2021/12/30 08:02:43;;;;;;;;;1.33;1.33;;;;;14.36;77.12;101364.88;5056316;28;45368;-58
2021/12/30 08:05:10;;;;;;;;;1.00;1.00;;;;;14.36;76.96;101375.56;5037910;28;45395;-61
2021/12/30 08:07:36;;;;;;;;;3.33;2.33;;;;;14.40;76.54;101385.13;5056340;28;46047;-59
2021/12/30 08:10:01;;;;;;;;;3.67;2.33;;;;;14.44;76.48;101400.09;5056104;28;45390;-61
2021/12/30 08:12:27;;;;;;;;;3.00;3.00;;;;;14.39;76.62;101380.75;5056302;28;45348;-61
2021/12/30 08:14:52;;;;;;;;;2.00;2.00;;;;;14.44;76.89;101389.38;5055364;28;45429;-59
2021/12/30 08:17:18;;;;;;;;;4.33;2.00;;;;;14.49;76.54;101408.72;5055785;28;46297;-61
2021/12/30 08:19:44;;;;;;;;;2.67;2.67;;;;;14.53;75.90;101407.56;5036777;28;45515;-61
2021/12/30 08:22:10;;;;;;;;;5.33;2.67;;;;;14.53;76.36;101404.91;5055692;28;45476;-60
2021/12/30 08:24:35;;;;;;;;;4.33;2.00;;;;;14.56;76.26;101412.75;5056170;28;45592;-61
2021/12/30 08:27:01;;;;;;;;;3.00;3.00;;;;;14.52;75.80;101402.31;5055746;28;46408;-60
2021/12/30 08:29:27;;;;;;;;;2.00;2.00;;;;;14.59;75.92;101417.94;5055201;28;45174;-60
2021/12/30 08:31:53;;;;;;;;;5.00;3.00;;;;;14.61;75.97;101413.34;5055350;28;45388;-59
2021/12/30 08:34:18;;;;;;;;;9.33;7.67;;;;;14.64;75.72;101423.88;5055929;28;45362;-61
2021/12/30 08:36:45;;;;;;;;;5.00;2.67;;;;;14.66;75.29;101431.81;5055367;28;46594;-60
2021/12/30 08:39:11;;;;;;;;;6.00;4.00;;;;;14.64;75.33;101431.91;5055536;28;45455;-59
2021/12/30 08:41:36;;;;;;;;;2.00;2.00;;;;;14.65;75.12;101436.28;5055886;28;45331;-58
2021/12/30 08:44:02;;;;;;;;;5.67;2.00;;;;;14.67;75.63;101450.44;5055708;28;45696;-60
2021/12/30 08:46:27;;;;;;;;;5.00;2.00;;;;;14.65;75.40;101441.66;5054331;28;46242;-61
2021/12/30 08:48:52;;;;;;;;;4.00;2.33;;;;;14.66;75.11;101448.72;5037369;28;45379;-61
2021/12/30 08:51:18;;;;;;;;;2.00;2.00;;;;;14.68;75.46;101456.66;5055145;28;45400;-59
2021/12/30 08:53:43;;;;;;;;;2.00;2.00;;;;;14.65;75.18;101441.66;5055653;28;45433;-61
2021/12/30 08:56:12;;;;;;;;;3.33;2.33;;;;;14.70;75.39;101431.50;5055160;28;45386;-58
2021/12/30 08:58:38;;;;;;;;;7.33;2.00;;;;;14.80;75.24;101445.22;5055572;28;45276;-61
2021/12/30 09:01:05;;;;;;;;;3.67;2.33;;;;;14.79;74.91;101437.28;5052955;28;45426;-58
2021/12/30 09:03:31;;;;;;;;;4.33;3.00;;;;;14.79;75.06;101437.28;5046003;28;45502;-61
2021/12/30 09:05:56;;;;;;;;;3.00;2.00;;;;;14.77;74.88;101433.84;5023886;28;46878;-59
2021/12/30 09:08:22;;;;;;;;;9.33;3.00;;;;;14.80;74.58;101445.22;5034931;28;45324;-59
2021/12/30 09:10:50;;;;;;;;;4.00;3.00;;;;;14.81;74.93;101446.94;5034932;28;45479;-60
2021/12/30 09:13:18;;;;;;;;;5.00;2.00;;;;;14.80;74.69;101444.34;5035525;28;45398;-59
2021/12/30 09:15:44;;;;;;;;;3.67;3.00;;;;;14.80;74.82;101447.91;5017014;28;46170;-59
2021/12/30 09:18:10;;;;;;;;;3.33;3.33;;;;;14.78;74.74;101451.63;5048088;28;45825;-59
2021/12/30 09:20:38;;;;;;;;;4.67;2.00;;;;;14.82;74.49;101453.16;5055462;28;45363;-61
2021/12/30 09:23:04;;;;;;;;;8.67;3.00;;;;;14.87;74.57;101464.47;5055095;28;45268;-62
2021/12/30 09:25:30;;;;;;;;;11.33;4.00;;;;;14.90;74.64;101458.94;5053815;28;45439;-60
2021/12/30 09:27:57;;;;;;;;;2.00;2.00;;;;;14.90;74.12;101466.97;5039533;28;45522;-60
2021/12/30 09:30:26;;;;;;;;;3.67;3.67;;;;;14.91;74.65;101463.31;5039881;28;45366;-60
2021/12/30 09:32:57;;;;;;;;;3.00;2.00;;;;;14.93;74.70;101462.28;5057563;28;45532;-59
2021/12/30 09:35:23;;;;;;;;;2.67;2.67;;;;;14.95;74.56;101464.84;5051565;28;46007;-58
2021/12/30 09:37:49;;;;;;;;;8.67;5.00;;;;;14.96;74.27;101466.56;5047425;28;45445;-58
2021/12/30 09:40:17;;;;;;;;;6.00;4.67;;;;;14.97;73.87;101469.19;5025521;28;45442;-61
2021/12/30 09:42:47;;;;;;;;;5.00;3.67;;;;;15.01;74.56;101475.22;5055225;28;45523;-58
2021/12/30 09:45:14;;;;;;;;;3.00;3.00;;;;;15.04;74.49;101480.38;5056850;28;46236;-60
2021/12/30 09:48:00;;;;;;;;;7.33;3.00;;;;;15.07;74.21;101474.81;5057738;28;45453;-62
2021/12/30 09:50:31;;;;;;;;;2.00;0.33;;;;;15.12;73.47;101470.06;5056721;28;45475;-60
2021/12/30 09:52:59;;;;;;;;;2.67;2.00;;;;;15.11;73.81;101479.06;5057395;28;45416;-60
2021/12/30 09:55:25;;;;;;;;;9.33;3.00;;;;;15.14;74.08;101467.31;5038336;28;45293;-62
2021/12/30 09:57:53;;;;;;;;;4.00;2.33;;;;;15.15;73.66;101477.91;5056914;28;45530;-59
2021/12/30 10:00:19;;;;;;;;;6.00;3.00;;;;;15.14;73.75;101470.84;5051707;28;45326;-58
2021/12/30 10:02:46;;;;;;;;;3.67;2.33;;;;;15.20;73.71;101475.81;5039143;28;45434;-59
2021/12/30 10:05:25;;;;;;;;;3.00;2.00;;;;;15.19;73.41;101479.44;5057062;28;46258;-62
2021/12/30 10:08:11;;;;;;;;;3.67;2.00;;;;;15.19;73.40;101474.09;5056835;28;45722;-64
2021/12/30 10:10:39;;;;;;;;;3.33;2.00;;;;;15.25;73.49;101483.59;5057450;28;45536;-59
2021/12/30 10:13:24;;;;;;;;;4.00;3.00;;;;;15.26;73.38;101486.16;5056872;28;45446;-59
2021/12/30 10:16:00;;;;;;;;;5.00;4.00;;;;;15.22;73.23;101476.56;5046780;28;47695;-58
2021/12/30 10:18:44;;;;;;;;;6.00;3.33;;;;;15.28;73.45;101481.56;5029568;28;45429;-61
2021/12/30 10:21:27;;;;;;;;;2.67;2.67;;;;;15.32;72.68;101480.41;5056272;28;45569;-64
2021/12/30 10:23:56;;;;;;;;;2.00;2.00;;;;;15.29;73.28;101471.72;5038886;28;45532;-58
2021/12/30 10:26:23;;;;;;;;;5.00;3.33;;;;;15.32;72.96;101477.72;5038273;28;45216;-61
2021/12/30 10:28:54;;;;;;;;;3.33;3.00;;;;;15.39;72.98;101482.72;5048379;28;45495;-60
2021/12/30 10:31:25;;;;;;;;;3.67;3.67;;;;;15.41;72.85;101496.91;5014209;28;45442;-60
2021/12/30 10:33:59;;;;;;;;;2.00;2.00;;;;;15.41;73.13;101492.41;5036412;28;45689;-60
2021/12/30 10:36:36;;;;;;;;;1.00;1.00;;;;;15.40;72.70;101493.34;5046280;28;45447;-61
2021/12/30 10:39:18;;;;;;;;;2.67;2.33;;;;;15.40;72.97;101497.84;5043556;28;45570;-59
2021/12/30 10:41:44;;;;;;;;;5.00;3.67;;;;;15.42;72.94;101491.44;5041830;28;45454;-63
2021/12/30 10:44:10;;;;;;;;;3.00;3.00;;;;;15.43;72.89;101490.47;5032722;28;45505;-63
2021/12/30 10:46:36;;;;;;;;;1.67;1.00;;;;;15.44;72.68;101488.66;5051504;28;45584;-62
2021/12/30 10:49:09;;;;;;;;;3.67;2.00;;;;;15.44;73.16;101484.16;5030207;28;46065;-60
2021/12/30 10:51:48;;;;;;;;;4.33;2.33;;;;;15.49;72.94;101475.81;5047481;28;45253;-67
2021/12/30 10:54:37;;;;;;;;;6.00;3.00;;;;;15.55;73.17;101483.50;5047261;28;45775;-62
2021/12/30 10:57:09;;;;;;;;;4.00;3.00;;;;;15.60;72.37;101489.44;5046349;28;45526;-64
2021/12/30 10:59:47;;;;;;;;;4.00;3.00;;;;;15.61;72.46;101475.06;5047943;28;45491;-65
2021/12/30 11:02:21;;;;;;;;;7.00;3.67;;;;;15.67;72.79;101474.72;5047625;28;46425;-64
2021/12/30 11:04:53;;;;;;;;;5.00;2.33;;;;;15.72;72.43;101471.72;5052424;28;45338;-64
2021/12/30 11:07:25;;;;;;;;;2.33;2.33;;;;;15.73;72.53;101465.41;5048905;28;46214;-60
2021/12/30 11:09:58;;;;;;;;;4.00;3.00;;;;;15.76;72.22;101468.78;5028219;28;45831;-61
2021/12/30 11:12:28;;;;;;;;;4.00;2.00;;;;;15.79;71.93;101473.06;5053623;28;45443;-61
2021/12/30 11:14:55;;;;;;;;;4.00;2.67;;;;;15.80;72.41;101478.34;5069375;28;45482;-62
2021/12/30 11:17:29;;;;;;;;;2.67;2.33;;;;;15.73;72.17;101479.66;5061685;28;46028;-63
2021/12/30 11:20:00;;;;;;;;;2.67;2.67;;;;;15.67;72.25;101477.38;5047416;28;45458;-60
2021/12/30 11:22:31;;;;;;;;;4.00;3.67;;;;;15.72;72.23;101480.63;5049265;28;45395;-65
2021/12/30 11:24:59;;;;;;;;;3.00;3.00;;;;;15.76;71.94;101474.13;5030365;28;45621;-61